createdAt,value
2023-05-24T00:00:43.314Z,65.41
2023-05-24T00:03:10.652Z,65.81
2023-05-24T00:05:40.654Z,65.94
2023-05-24T00:08:08.102Z,65.69
2023-05-24T00:10:35.567Z,65.90
2023-05-24T00:13:02.707Z,65.68
2023-05-24T00:15:29.757Z,65.70
2023-05-24T00:17:56.824Z,65.78
2023-05-24T00:20:23.864Z,66.08
2023-05-24T00:22:51.415Z,66.20
2023-05-24T00:25:18.665Z,66.14
2023-05-24T00:27:46.230Z,66.24
2023-05-24T00:30:13.208Z,66.39
2023-05-24T00:32:42.316Z,66.45
2023-05-24T00:35:09.425Z,66.57
2023-05-24T00:37:37.200Z,66.61
2023-05-24T00:40:04.788Z,66.76
2023-05-24T00:42:32.108Z,67.38
2023-05-24T00:44:58.954Z,67.84
2023-05-24T00:47:26.110Z,67.76
2023-05-24T00:49:53.157Z,67.78
2023-05-24T00:52:20.096Z,67.46
2023-05-24T00:54:47.056Z,67.26
2023-05-24T00:57:14.120Z,67.39
2023-05-24T00:59:41.168Z,67.57
2023-05-24T01:02:08.954Z,67.72
2023-05-24T01:04:37.805Z,67.75
2023-05-24T01:07:37.546Z,67.89
2023-05-24T01:10:08.160Z,67.78
2023-05-24T01:12:46.896Z,67.64
2023-05-24T01:15:22.429Z,67.53
2023-05-24T01:18:01.230Z,67.32
2023-05-24T01:20:33.082Z,67.50
2023-05-24T01:23:16.136Z,67.52
2023-05-24T01:26:03.480Z,67.58
2023-05-24T01:28:31.533Z,67.83
2023-05-24T01:30:58.589Z,67.91
2023-05-24T01:33:25.635Z,67.52
2023-05-24T01:35:52.596Z,67.20
2023-05-24T01:38:19.530Z,67.09
2023-05-24T01:40:47.087Z,67.12
2023-05-24T01:43:17.972Z,67.12
2023-05-24T01:46:00.434Z,67.03
2023-05-24T01:48:27.376Z,66.97
2023-05-24T01:50:58.411Z,67.02
2023-05-24T01:53:26.667Z,66.96
2023-05-24T01:55:56.527Z,66.78
2023-05-24T01:58:23.564Z,66.56
2023-05-24T02:00:50.868Z,66.58
2023-05-24T02:03:17.956Z,66.96
2023-05-24T02:05:45.939Z,68.19
2023-05-24T02:08:12.992Z,69.05
2023-05-24T02:10:40.640Z,69.23
2023-05-24T02:13:07.915Z,68.89
2023-05-24T02:15:35.289Z,68.82
2023-05-24T02:18:02.419Z,68.88
2023-05-24T02:20:36.554Z,68.99
2023-05-24T02:23:04.091Z,68.91
2023-05-24T02:25:31.652Z,69.06
2023-05-24T02:27:59.298Z,69.00
2023-05-24T02:30:26.881Z,68.82
2023-05-24T02:32:53.954Z,68.85
2023-05-24T02:35:20.882Z,68.73
2023-05-24T02:37:47.822Z,68.86
2023-05-24T02:40:15.287Z,68.65
2023-05-24T02:42:42.538Z,68.52
2023-05-24T02:45:10.269Z,68.41
2023-05-24T02:47:37.517Z,68.37
2023-05-24T02:50:05.729Z,68.35
2023-05-24T02:52:32.993Z,68.26
2023-05-24T02:54:59.941Z,68.07
2023-05-24T02:57:28.411Z,68.15
2023-05-24T02:59:55.772Z,68.15
2023-05-24T03:02:22.819Z,68.05
2023-05-24T03:04:49.983Z,68.07
2023-05-24T03:07:17.122Z,68.06
2023-05-24T03:09:44.072Z,67.81
2023-05-24T03:12:12.453Z,67.57
2023-05-24T03:14:39.394Z,67.53
2023-05-24T03:17:06.346Z,67.73
2023-05-24T03:19:33.947Z,67.87
2023-05-24T03:22:01.176Z,67.95
2023-05-24T03:24:28.110Z,68.08
2023-05-24T03:26:55.060Z,68.23
2023-05-24T03:29:22.206Z,68.27
2023-05-24T03:31:50.918Z,68.35
2023-05-24T03:34:17.946Z,68.54
2023-05-24T03:36:45.003Z,68.67
2023-05-24T03:39:12.150Z,68.90
2023-05-24T03:41:53.940Z,69.01
2023-05-24T03:44:20.988Z,68.97
2023-05-24T03:46:47.948Z,68.89
2023-05-24T03:49:15.099Z,68.56
2023-05-24T03:51:42.542Z,68.14
2023-05-24T03:54:09.695Z,67.96
2023-05-24T03:56:36.951Z,67.79
2023-05-24T03:59:04.091Z,67.37
2023-05-24T04:01:34.430Z,67.37
2023-05-24T04:04:03.255Z,67.25
2023-05-24T04:06:30.465Z,67.12
2023-05-24T04:08:58.938Z,66.72
2023-05-24T04:11:28.798Z,66.15
2023-05-24T04:13:56.959Z,65.86
2023-05-24T04:16:24.425Z,66.02
2023-05-24T04:18:51.962Z,66.17
2023-05-24T04:21:19.164Z,65.89
2023-05-24T04:23:46.253Z,65.48
2023-05-24T04:26:13.815Z,65.20
2023-05-24T04:28:41.075Z,65.29
2023-05-24T04:31:09.513Z,65.10
2023-05-24T04:33:38.855Z,64.98
2023-05-24T04:36:07.952Z,64.97
2023-05-24T04:38:35.933Z,64.40
2023-05-24T04:41:02.878Z,63.93
2023-05-24T04:43:30.232Z,63.55
2023-05-24T04:45:57.475Z,63.72
2023-05-24T04:48:25.346Z,63.72
2023-05-24T04:50:53.551Z,62.95
2023-05-24T04:53:21.135Z,62.67
2023-05-24T04:55:48.335Z,62.67
2023-05-24T04:58:15.894Z,62.62
2023-05-24T05:00:43.256Z,62.17
2023-05-24T05:03:10.664Z,62.08
2023-05-24T05:05:37.859Z,61.68
2023-05-24T05:08:04.906Z,60.88
2023-05-24T05:10:32.054Z,60.60
2023-05-24T05:12:59.106Z,60.34
2023-05-24T05:15:26.154Z,60.21
2023-05-24T05:17:53.658Z,58.55
2023-05-24T05:20:21.037Z,57.91
2023-05-24T05:22:48.571Z,57.70
2023-05-24T05:25:16.804Z,57.12
2023-05-24T05:27:45.081Z,57.29
2023-05-24T05:30:12.776Z,57.67
2023-05-24T05:32:39.898Z,56.43
2023-05-24T05:35:07.583Z,55.52
2023-05-24T05:37:35.134Z,55.09
2023-05-24T05:40:03.605Z,54.79
2023-05-24T05:42:30.760Z,55.03
2023-05-24T05:44:57.708Z,54.86
2023-05-24T05:47:24.693Z,54.51
2023-05-24T05:49:51.809Z,54.22
2023-05-24T05:52:18.758Z,54.06
2023-05-24T05:54:45.701Z,54.33
2023-05-24T05:57:12.855Z,53.89
2023-05-24T05:59:39.901Z,53.87
2023-05-24T06:02:07.235Z,54.29
2023-05-24T06:06:23.991Z,53.94
2023-05-24T06:08:51.753Z,52.81
2023-05-24T06:11:19.646Z,53.30
2023-05-24T06:13:47.398Z,52.87
2023-05-24T06:16:15.291Z,52.57
2023-05-24T06:18:50.211Z,52.33
2023-05-24T06:21:22.148Z,51.55
2023-05-24T06:23:50.020Z,50.83
2023-05-24T06:26:17.989Z,50.83
2023-05-24T06:28:45.758Z,49.68
2023-05-24T06:31:13.840Z,49.12
2023-05-24T06:33:44.669Z,48.81
2023-05-24T06:36:18.271Z,48.71
2023-05-24T06:38:46.034Z,47.47
2023-05-24T06:41:13.817Z,45.79
2023-05-24T06:43:41.606Z,46.06
2023-05-24T06:46:09.795Z,46.31
2023-05-24T06:48:37.751Z,44.76
2023-05-24T06:51:05.588Z,43.95
2023-05-24T06:53:33.359Z,44.78
2023-05-24T06:56:01.120Z,45.82
2023-05-24T06:58:28.892Z,44.08
2023-05-24T07:00:56.699Z,43.95
2023-05-24T07:03:25.453Z,42.71
2023-05-24T07:05:53.312Z,42.74
2023-05-24T07:08:21.093Z,42.54
2023-05-24T07:10:48.845Z,42.42
2023-05-24T07:13:17.252Z,42.83
2023-05-24T07:15:47.087Z,42.58
2023-05-24T07:18:14.809Z,43.34
2023-05-24T07:20:42.861Z,43.11
2023-05-24T07:23:10.958Z,42.98
2023-05-24T07:25:39.128Z,43.23
2023-05-24T07:28:07.409Z,41.55
2023-05-24T07:30:35.832Z,40.92
2023-05-24T07:33:04.076Z,40.64
2023-05-24T07:35:33.277Z,39.89
2023-05-24T07:38:01.392Z,39.52
2023-05-24T07:40:29.107Z,40.88
2023-05-24T07:42:56.878Z,41.37
2023-05-24T07:45:24.747Z,40.60
2023-05-24T07:47:54.521Z,40.67
2023-05-24T07:50:24.384Z,39.87
2023-05-24T07:52:52.242Z,40.22
2023-05-24T07:55:20.215Z,39.49
2023-05-24T07:57:48.137Z,39.25
2023-05-24T08:00:16.863Z,38.39
2023-05-24T08:02:46.892Z,38.01
2023-05-24T08:05:15.392Z,38.08
2023-05-24T08:07:43.252Z,38.33
2023-05-24T08:10:13.979Z,37.85
2023-05-24T08:12:42.551Z,37.76
2023-05-24T08:15:11.046Z,37.39
2023-05-24T08:17:39.466Z,37.98
2023-05-24T08:20:10.201Z,38.61
2023-05-24T08:22:38.329Z,38.91
2023-05-24T08:25:07.006Z,38.77
2023-05-24T08:27:35.270Z,38.62
2023-05-24T08:30:04.504Z,39.51
2023-05-24T08:32:32.817Z,39.22
2023-05-24T08:35:14.893Z,39.14
2023-05-24T08:37:48.330Z,39.09
2023-05-24T08:40:16.562Z,38.21
2023-05-24T08:42:45.044Z,36.90
2023-05-24T08:45:13.741Z,36.84
2023-05-24T08:47:42.690Z,37.62
2023-05-24T08:50:10.905Z,37.25
2023-05-24T08:52:40.026Z,37.63
2023-05-24T08:55:08.839Z,37.40
2023-05-24T08:57:39.711Z,37.37
2023-05-24T09:00:14.509Z,37.66
2023-05-24T09:02:43.582Z,37.46
2023-05-24T09:05:12.624Z,36.93
2023-05-24T09:07:41.034Z,37.08
2023-05-24T09:10:09.685Z,35.97
2023-05-24T09:12:39.275Z,35.40
2023-05-24T09:15:08.632Z,35.96
2023-05-24T09:17:37.458Z,35.31
2023-05-24T09:20:11.497Z,35.15
2023-05-24T09:22:42.252Z,35.11
2023-05-24T09:25:11.588Z,34.94
2023-05-24T09:27:39.692Z,35.05
2023-05-24T09:30:11.311Z,33.25
2023-05-24T09:32:39.295Z,33.06
2023-05-24T09:35:10.979Z,33.17
2023-05-24T09:37:39.195Z,33.33
2023-05-24T09:40:09.146Z,33.03
2023-05-24T09:42:37.808Z,33.45
2023-05-24T09:45:09.535Z,32.78
2023-05-24T09:47:38.163Z,32.89
2023-05-24T09:50:07.643Z,33.04
2023-05-24T09:52:38.603Z,33.01
2023-05-24T09:55:13.627Z,32.72
2023-05-24T09:57:41.502Z,33.18
2023-05-24T10:00:17.880Z,33.70
2023-05-24T10:02:53.470Z,34.61
2023-05-24T10:05:22.007Z,34.97
2023-05-24T10:07:49.862Z,35.41
2023-05-24T10:10:17.626Z,35.33
2023-05-24T10:12:47.121Z,36.00
2023-05-24T10:15:14.913Z,36.18
2023-05-24T10:17:42.704Z,36.45
2023-05-24T10:20:12.778Z,37.19
2023-05-24T10:22:47.717Z,37.22
2023-05-24T10:25:27.794Z,36.97
2023-05-24T10:28:01.170Z,37.26
2023-05-24T10:30:35.462Z,37.10
2023-05-24T10:33:05.304Z,37.47
2023-05-24T10:35:34.206Z,37.14
2023-05-24T10:38:06.662Z,37.16
2023-05-24T10:40:34.429Z,35.90
2023-05-24T10:43:07.007Z,35.83
2023-05-24T10:45:40.417Z,33.95
2023-05-24T10:48:14.575Z,33.92
2023-05-24T10:50:43.067Z,33.88
2023-05-24T10:53:15.284Z,33.32
2023-05-24T10:55:55.947Z,32.33
2023-05-24T10:58:30.780Z,31.11
2023-05-24T11:00:58.551Z,30.35
2023-05-24T11:03:26.319Z,29.98
2023-05-24T11:05:55.065Z,30.05
2023-05-24T11:08:44.200Z,29.72
2023-05-24T11:13:44.408Z,30.02
2023-05-24T11:16:34.305Z,30.19
2023-05-24T11:19:16.186Z,29.67
2023-05-24T11:21:51.742Z,30.04
2023-05-24T11:24:20.311Z,29.43
2023-05-24T11:26:48.201Z,29.80
2023-05-24T11:29:22.918Z,30.25
2023-05-24T11:31:55.616Z,31.24
2023-05-24T11:34:24.423Z,31.10
2023-05-24T11:36:55.748Z,32.06
2023-05-24T11:43:17.472Z,31.26
2023-05-24T11:45:52.073Z,30.46
2023-05-24T11:48:20.130Z,30.32
2023-05-24T11:50:51.276Z,30.36
2023-05-24T11:53:20.213Z,30.10
2023-05-24T11:55:49.103Z,29.32
2023-05-24T11:58:16.979Z,29.34
2023-05-24T12:00:44.945Z,27.72
2023-05-24T12:03:12.877Z,27.97
2023-05-24T12:05:40.785Z,27.62
2023-05-24T12:08:12.425Z,26.72
2023-05-24T12:10:41.985Z,26.85
2023-05-24T12:13:23.623Z,27.09
2023-05-24T12:15:56.524Z,27.23
2023-05-24T12:18:26.426Z,27.41
2023-05-24T12:20:54.532Z,27.32
2023-05-24T12:23:28.037Z,27.25
2023-05-24T12:26:00.256Z,28.32
2023-05-24T12:28:28.834Z,28.66
2023-05-24T12:30:56.626Z,28.66
2023-05-24T12:33:24.616Z,28.83
2023-05-24T12:35:53.708Z,28.55
2023-05-24T12:38:25.884Z,28.01
2023-05-24T12:41:10.831Z,27.89
2023-05-24T12:43:40.930Z,27.44
2023-05-24T12:46:08.858Z,27.49
2023-05-24T12:48:36.607Z,27.92
2023-05-24T12:51:04.673Z,28.38
2023-05-24T12:53:32.659Z,27.90
2023-05-24T12:56:01.034Z,28.08
2023-05-24T12:58:29.303Z,27.23
2023-05-24T13:00:57.314Z,26.79
2023-05-24T13:03:25.254Z,26.85
2023-05-24T13:05:53.135Z,25.97
2023-05-24T13:08:21.084Z,26.26
2023-05-24T13:10:51.149Z,25.91
2023-05-24T13:13:18.973Z,26.39
2023-05-24T13:15:47.762Z,26.25
2023-05-24T13:18:15.637Z,26.67
2023-05-24T13:20:43.603Z,27.74
2023-05-24T13:23:11.779Z,28.52
2023-05-24T13:25:39.542Z,28.34
2023-05-24T13:28:07.466Z,28.70
2023-05-24T13:30:35.388Z,28.84
2023-05-24T13:33:03.307Z,29.69
2023-05-24T13:35:31.631Z,29.44
2023-05-24T13:37:59.504Z,29.89
2023-05-24T13:40:27.415Z,30.33
2023-05-24T13:42:57.131Z,31.35
2023-05-24T13:45:25.470Z,30.98
2023-05-24T13:47:54.195Z,30.81
2023-05-24T13:50:24.122Z,31.43
2023-05-24T13:52:52.029Z,30.40
2023-05-24T13:55:19.793Z,30.27
2023-05-24T13:57:51.695Z,30.33
2023-05-24T14:00:20.358Z,29.88
2023-05-24T14:02:48.787Z,29.69
2023-05-24T14:05:27.514Z,29.42
2023-05-24T14:07:57.864Z,29.57
2023-05-24T14:10:26.285Z,29.42
2023-05-24T14:13:11.232Z,29.74
2023-05-24T14:15:42.706Z,29.67
2023-05-24T14:18:11.027Z,29.59
2023-05-24T14:20:40.375Z,29.21
2023-05-24T14:23:08.647Z,29.43
2023-05-24T14:25:36.508Z,29.47
2023-05-24T14:28:04.289Z,29.93
2023-05-24T14:30:32.557Z,29.86
2023-05-24T14:33:01.436Z,29.29
2023-05-24T14:35:29.316Z,28.95
2023-05-24T14:37:57.084Z,28.76
2023-05-24T14:40:24.878Z,28.51
2023-05-24T14:42:52.620Z,28.05
2023-05-24T14:45:20.383Z,28.38
2023-05-24T14:47:48.198Z,28.84
2023-05-24T14:50:16.325Z,28.91
2023-05-24T14:52:44.088Z,29.39
2023-05-24T14:55:11.908Z,29.18
2023-05-24T14:57:39.728Z,29.21
2023-05-24T15:00:08.803Z,29.97
2023-05-24T15:02:37.559Z,29.75
2023-05-24T15:05:06.298Z,30.77
2023-05-24T15:07:34.071Z,30.36
2023-05-24T15:10:01.977Z,29.91
2023-05-24T15:12:29.920Z,30.52
2023-05-24T15:14:57.881Z,30.24
2023-05-24T15:17:26.674Z,31.13
2023-05-24T15:19:54.562Z,30.97
2023-05-24T15:22:22.868Z,30.34
2023-05-24T15:24:50.686Z,30.51
2023-05-24T15:27:18.484Z,30.06
2023-05-24T15:29:46.323Z,30.71
2023-05-24T15:32:14.103Z,31.00
2023-05-24T15:34:41.965Z,31.24
2023-05-24T15:37:09.832Z,31.50
2023-05-24T15:39:37.910Z,32.11
2023-05-24T15:42:06.160Z,32.44
2023-05-24T15:44:33.947Z,32.69
2023-05-24T15:47:01.823Z,33.76
2023-05-24T15:49:29.786Z,34.14
2023-05-24T15:52:04.202Z,34.68
2023-05-24T15:54:33.121Z,35.26
2023-05-24T15:57:02.195Z,35.55
2023-05-24T15:59:30.003Z,35.81
2023-05-24T16:01:57.882Z,36.10
2023-05-24T16:04:25.704Z,36.40
2023-05-24T16:06:53.490Z,36.61
2023-05-24T16:09:21.540Z,36.45
2023-05-24T16:11:49.410Z,36.72
2023-05-24T16:14:17.176Z,36.92
2023-05-24T16:16:45.036Z,37.04
2023-05-24T16:19:12.924Z,36.47
2023-05-24T16:21:40.892Z,36.49
2023-05-24T16:24:09.467Z,36.39
2023-05-24T16:26:37.443Z,36.78
2023-05-24T16:29:07.363Z,37.08
2023-05-24T16:31:35.167Z,37.13
2023-05-24T16:34:03.303Z,37.29
2023-05-24T16:36:32.090Z,37.41
2023-05-24T16:38:59.949Z,37.70
2023-05-24T16:41:34.899Z,37.88
2023-05-24T16:44:02.667Z,38.10
2023-05-24T16:46:30.921Z,38.27
2023-05-24T16:48:59.531Z,38.13
2023-05-24T16:51:27.299Z,38.44
2023-05-24T16:53:55.060Z,38.60
2023-05-24T16:56:23.654Z,38.80
2023-05-24T16:58:51.629Z,39.17
2023-05-24T17:01:19.506Z,39.74
2023-05-24T17:03:48.108Z,39.66
2023-05-24T17:06:15.995Z,39.94
2023-05-24T17:08:43.821Z,40.19
2023-05-24T17:11:12.207Z,40.43
2023-05-24T17:13:40.376Z,40.52
2023-05-24T17:16:08.472Z,40.73
2023-05-24T17:18:36.218Z,40.80
2023-05-24T17:21:04.652Z,40.83
2023-05-24T17:23:33.601Z,41.12
2023-05-24T17:26:02.875Z,41.40
2023-05-24T17:28:30.810Z,41.69
2023-05-24T17:30:59.636Z,42.12
2023-05-24T17:33:28.371Z,42.00
2023-05-24T17:36:02.820Z,42.21
2023-05-24T17:38:33.357Z,42.63
2023-05-24T17:41:00.993Z,42.75
2023-05-24T17:43:34.580Z,43.25
2023-05-24T17:46:09.668Z,43.35
2023-05-24T17:48:38.236Z,43.78
2023-05-24T17:51:07.397Z,43.73
2023-05-24T17:53:35.730Z,44.04
2023-05-24T17:56:03.731Z,44.03
2023-05-24T17:58:33.006Z,44.22
2023-05-24T18:01:00.772Z,44.72
2023-05-24T18:03:28.453Z,44.90
2023-05-24T18:05:56.335Z,44.92
2023-05-24T18:08:25.504Z,45.25
2023-05-24T18:10:53.080Z,45.49
2023-05-24T18:13:20.688Z,45.64
2023-05-24T18:15:51.822Z,45.77
2023-05-24T18:18:19.416Z,46.10
2023-05-24T18:20:47.087Z,46.34
2023-05-24T18:23:59.766Z,46.61
2023-05-24T18:26:27.426Z,46.96
2023-05-24T18:28:55.185Z,46.92
2023-05-24T18:31:22.723Z,47.32
2023-05-24T18:33:50.614Z,47.55
2023-05-24T18:36:18.447Z,48.09
2023-05-24T18:38:47.525Z,48.46
2023-05-24T18:41:16.692Z,48.82
2023-05-24T18:43:44.317Z,49.42
2023-05-24T18:46:15.238Z,49.72
2023-05-24T18:48:43.027Z,50.09
2023-05-24T18:51:10.695Z,50.30
2023-05-24T18:53:38.253Z,50.67
2023-05-24T18:56:06.474Z,50.92
2023-05-24T18:58:34.035Z,51.07
2023-05-24T19:01:01.746Z,51.11
2023-05-24T19:03:29.583Z,51.22
2023-05-24T19:05:57.375Z,51.63
2023-05-24T19:08:24.975Z,51.68
2023-05-24T19:10:52.671Z,51.73
2023-05-24T19:13:20.446Z,51.71
2023-05-24T19:15:47.999Z,51.87
2023-05-24T19:18:16.197Z,53.08
2023-05-24T19:20:43.834Z,54.90
2023-05-24T19:23:11.717Z,55.34
2023-05-24T19:25:42.303Z,54.53
2023-05-24T19:28:10.952Z,53.77
2023-05-24T19:30:38.645Z,53.84
2023-05-24T19:33:07.397Z,53.93
2023-05-24T19:35:35.252Z,54.03
2023-05-24T19:38:02.903Z,54.34
2023-05-24T19:40:30.581Z,54.80
2023-05-24T19:42:58.212Z,56.01
2023-05-24T19:45:25.984Z,56.52
2023-05-24T19:47:53.568Z,57.05
2023-05-24T19:50:21.336Z,57.36
2023-05-24T19:52:48.853Z,57.30
2023-05-24T19:55:16.496Z,57.14
2023-05-24T19:57:44.108Z,57.00
2023-05-24T20:00:13.951Z,56.61
2023-05-24T20:02:41.656Z,56.35
2023-05-24T20:05:09.553Z,56.17
2023-05-24T20:07:38.255Z,56.27
2023-05-24T20:10:06.837Z,57.40
2023-05-24T20:12:34.813Z,57.68
2023-05-24T20:15:02.806Z,57.32
2023-05-24T20:17:30.743Z,57.12
2023-05-24T20:19:58.456Z,57.13
2023-05-24T20:22:26.164Z,57.12
2023-05-24T20:24:53.692Z,57.16
2023-05-24T20:27:21.606Z,57.44
2023-05-24T20:29:49.164Z,57.50
2023-05-24T20:32:17.217Z,57.77
2023-05-24T20:34:44.877Z,58.12
2023-05-24T20:37:12.482Z,58.18
2023-05-24T20:39:40.041Z,58.38
2023-05-24T20:42:08.572Z,58.43
2023-05-24T20:44:36.236Z,58.60
2023-05-24T20:47:03.912Z,58.74
2023-05-24T20:49:31.589Z,59.02
2023-05-24T20:51:59.279Z,59.44
2023-05-24T20:54:26.833Z,59.57
2023-05-24T20:56:54.378Z,59.87
2023-05-24T20:59:21.938Z,59.67
2023-05-24T21:01:49.581Z,59.68
2023-05-24T21:04:17.436Z,59.97
2023-05-24T21:06:45.463Z,61.07
2023-05-24T21:09:13.079Z,61.70
2023-05-24T21:11:40.834Z,61.97
2023-05-24T21:14:08.744Z,60.75
2023-05-24T21:16:36.736Z,60.32
2023-05-24T21:19:04.440Z,60.33
2023-05-24T21:21:32.307Z,60.18
2023-05-24T21:23:59.964Z,60.27
2023-05-24T21:26:27.597Z,60.75
2023-05-24T21:28:55.398Z,60.89
2023-05-24T21:31:23.250Z,61.26
2023-05-24T21:33:51.087Z,61.57
2023-05-24T21:36:18.650Z,61.68
2023-05-24T21:38:47.071Z,61.02
2023-05-24T21:41:14.886Z,60.82
2023-05-24T21:43:43.016Z,60.71
2023-05-24T21:46:10.548Z,60.43
2023-05-24T21:48:38.138Z,60.38
2023-05-24T21:51:06.080Z,60.48
2023-05-24T21:53:35.294Z,60.59
2023-05-24T21:56:06.754Z,60.57
2023-05-24T21:58:34.849Z,60.63
2023-05-24T22:01:02.485Z,60.69
2023-05-24T22:03:30.111Z,60.88
2023-05-24T22:05:57.817Z,60.97
2023-05-24T22:08:25.590Z,60.96
2023-05-24T22:10:53.158Z,61.13
2023-05-24T22:13:20.673Z,61.45
2023-05-24T22:15:48.204Z,61.69
2023-05-24T22:18:18.847Z,61.78
2023-05-24T22:20:46.416Z,62.07
2023-05-24T22:23:14.523Z,62.14
2023-05-24T22:25:42.857Z,62.02
2023-05-24T22:28:10.694Z,62.16
2023-05-24T22:30:38.264Z,62.07
2023-05-24T22:33:05.816Z,62.15
2023-05-24T22:35:33.437Z,62.34
2023-05-24T22:38:01.696Z,62.54
2023-05-24T22:40:29.397Z,62.52
2023-05-24T22:42:57.067Z,62.49
2023-05-24T22:45:24.619Z,62.58
2023-05-24T22:47:54.310Z,62.47
2023-05-24T22:50:22.142Z,62.54
2023-05-24T22:52:49.757Z,62.40
2023-05-24T22:55:17.661Z,62.42
2023-05-24T22:57:45.207Z,62.41
2023-05-24T23:00:13.512Z,62.51
2023-05-24T23:02:41.258Z,62.55
2023-05-24T23:05:09.728Z,62.74
2023-05-24T23:07:38.219Z,63.13
2023-05-24T23:10:08.059Z,63.78
2023-05-24T23:12:36.106Z,64.60
2023-05-24T23:15:04.820Z,64.95
2023-05-24T23:17:32.563Z,64.82
2023-05-24T23:20:00.389Z,64.66
2023-05-24T23:22:28.167Z,64.70
2023-05-24T23:24:56.140Z,65.09
2023-05-24T23:27:23.959Z,66.48
2023-05-24T23:29:51.546Z,66.93
2023-05-24T23:32:19.309Z,66.07
2023-05-24T23:34:47.134Z,66.14
2023-05-24T23:37:14.969Z,66.06
2023-05-24T23:39:42.627Z,66.15
2023-05-24T23:42:10.145Z,66.07
2023-05-24T23:44:37.756Z,65.94
2023-05-24T23:47:05.520Z,66.03
2023-05-24T23:49:33.555Z,65.93
2023-05-24T23:52:01.357Z,65.64
2023-05-24T23:54:28.900Z,65.63
2023-05-24T23:56:56.733Z,65.84
2023-05-24T23:59:24.554Z,65.67
